createdAt,value
2023-05-20T00:00:05.760Z,597.7692
2023-05-20T00:01:06.870Z,616.6154
2023-05-20T00:02:07.779Z,609.3846
2023-05-20T00:03:08.862Z,607.8461
2023-05-20T00:04:10.108Z,622.6923
2023-05-20T00:05:10.954Z,602.2308
2023-05-20T00:06:11.975Z,619.7692
2023-05-20T00:07:12.998Z,607.8461
2023-05-20T00:08:14.017Z,596.0000
2023-05-20T00:09:15.055Z,597.3846
2023-05-20T00:10:16.135Z,596.0769
2023-05-20T00:11:17.196Z,597.2308
2023-05-20T00:12:18.257Z,606.3077
2023-05-20T00:13:19.246Z,607.2308
2023-05-20T00:14:20.239Z,583.5385
2023-05-20T00:15:21.337Z,605.6154
2023-05-20T00:16:22.428Z,615.3846
2023-05-20T00:17:23.359Z,606.5385
2023-05-20T00:18:24.376Z,602.1539
2023-05-20T00:19:25.563Z,604.0000
2023-05-20T00:20:26.543Z,618.0000
2023-05-20T00:21:27.591Z,614.1539
2023-05-20T00:22:28.573Z,615.0000
2023-05-20T00:23:29.619Z,641.2308
2023-05-20T00:24:30.656Z,636.3077
2023-05-20T00:25:31.921Z,627.4615
2023-05-20T00:26:32.791Z,635.4615
2023-05-20T00:27:33.769Z,630.3846
2023-05-20T00:28:34.776Z,626.5385
2023-05-20T00:29:35.835Z,639.2308
2023-05-20T00:30:36.950Z,656.6923
2023-05-20T00:31:38.034Z,666.8461
2023-05-20T00:32:38.993Z,646.6154
2023-05-20T00:33:40.026Z,651.1539
2023-05-20T00:34:41.015Z,692.5385
2023-05-20T00:35:42.155Z,718.3846
2023-05-20T00:36:43.172Z,703.3077
2023-05-20T00:37:44.188Z,640.2308
2023-05-20T00:38:45.189Z,608.4615
2023-05-20T00:39:46.238Z,608.4615
2023-05-20T00:40:47.298Z,606.3077
2023-05-20T00:41:48.376Z,606.0000
2023-05-20T00:42:49.325Z,601.8461
2023-05-20T00:43:50.430Z,610.0000
2023-05-20T00:44:51.433Z,602.1539
2023-05-20T00:45:52.531Z,607.9231
2023-05-20T00:46:53.534Z,614.8461
2023-05-20T00:47:54.600Z,614.2308
2023-05-20T00:48:55.592Z,602.5385
2023-05-20T00:49:56.673Z,603.2308
2023-05-20T00:50:57.694Z,619.6923
2023-05-20T00:51:58.760Z,616.5385
2023-05-20T00:52:59.782Z,594.4615
2023-05-20T00:54:00.827Z,591.4615
2023-05-20T00:55:01.809Z,595.4615
2023-05-20T00:56:02.956Z,602.6923
2023-05-20T00:57:03.974Z,595.9231
2023-05-20T00:58:04.951Z,590.8461
2023-05-20T00:59:05.974Z,598.4615
2023-05-20T01:00:07.033Z,582.6923
2023-05-20T01:01:08.186Z,590.3846
2023-05-20T01:02:09.241Z,590.8461
2023-05-20T01:03:10.274Z,583.6154
2023-05-20T01:04:11.211Z,608.0769
2023-05-20T01:05:12.240Z,613.6154
2023-05-20T01:06:13.332Z,617.6923
2023-05-20T01:07:14.392Z,624.2308
2023-05-20T01:08:15.351Z,611.6154
2023-05-20T01:09:16.397Z,622.9231
2023-05-20T01:10:17.452Z,625.6154
2023-05-20T01:11:18.552Z,636.2308
2023-05-20T01:12:19.571Z,650.0000
2023-05-20T01:13:20.555Z,663.6923
2023-05-20T01:14:21.566Z,651.4615
2023-05-20T01:15:22.678Z,635.0000
2023-05-20T01:16:23.809Z,620.3846
2023-05-20T01:17:24.753Z,611.5385
2023-05-20T01:18:25.752Z,619.2308
2023-05-20T01:19:26.846Z,613.0769
2023-05-20T01:20:27.816Z,618.4615
2023-05-20T01:21:28.986Z,622.1539
2023-05-20T01:22:29.974Z,639.7692
2023-05-20T01:23:30.984Z,669.4615
2023-05-20T01:24:31.995Z,693.3846
2023-05-20T01:25:33.179Z,713.5385
2023-05-20T01:26:34.171Z,724.3077
2023-05-20T01:27:35.170Z,729.4615
2023-05-20T01:28:36.167Z,734.0769
2023-05-20T01:29:37.265Z,707.0769
2023-05-20T01:30:38.318Z,689.0000
2023-05-20T01:31:39.541Z,711.0769
2023-05-20T01:32:40.411Z,716.3077
2023-05-20T01:33:41.430Z,709.3846
2023-05-20T01:34:42.499Z,720.0769
2023-05-20T01:35:43.509Z,718.2308
2023-05-20T01:36:44.620Z,720.6154
2023-05-20T01:37:45.710Z,726.9231
2023-05-20T01:38:46.633Z,722.0000
2023-05-20T01:39:47.684Z,705.3077
2023-05-20T01:40:48.692Z,705.7692
2023-05-20T01:41:49.737Z,716.3846
2023-05-20T01:42:50.757Z,715.8461
2023-05-20T01:43:51.784Z,704.0769
2023-05-20T01:44:52.792Z,701.4615
2023-05-20T01:45:53.815Z,710.7692
2023-05-20T01:46:54.946Z,719.4615
2023-05-20T01:47:55.939Z,721.6923
2023-05-20T01:48:56.936Z,726.4615
2023-05-20T01:49:57.979Z,728.7692
2023-05-20T01:50:59.006Z,726.6154
2023-05-20T01:52:00.012Z,703.3846
2023-05-20T01:53:01.137Z,701.6154
2023-05-20T01:54:02.128Z,714.2308
2023-05-20T01:55:03.198Z,722.6154
2023-05-20T01:56:04.197Z,705.6923
2023-05-20T01:57:05.235Z,709.6923
2023-05-20T01:58:06.270Z,711.0000
2023-05-20T01:59:07.311Z,710.0000
2023-05-20T02:00:08.366Z,709.7692
2023-05-20T02:01:09.395Z,709.0769
2023-05-20T02:02:10.421Z,724.3077
2023-05-20T02:03:11.455Z,730.4615
2023-05-20T02:04:12.511Z,721.1539
2023-05-20T02:05:13.581Z,710.6154
2023-05-20T02:06:14.575Z,690.4615
2023-05-20T02:07:15.597Z,695.7692
2023-05-20T02:08:16.635Z,688.3077
2023-05-20T02:09:17.709Z,660.0000
2023-05-20T02:10:18.773Z,634.5385
2023-05-20T02:11:19.751Z,642.6154
2023-05-20T02:12:20.823Z,647.0769
2023-05-20T02:13:21.835Z,630.9231
2023-05-20T02:14:22.920Z,643.0000
2023-05-20T02:15:23.955Z,638.3846
2023-05-20T02:16:25.027Z,646.8461
2023-05-20T02:17:25.999Z,674.0000
2023-05-20T02:18:27.058Z,698.2308
2023-05-20T02:19:28.208Z,711.1539
2023-05-20T02:20:29.173Z,721.7692
2023-05-20T02:21:30.126Z,726.3077
2023-05-20T02:22:31.209Z,724.7692
2023-05-20T02:23:32.238Z,725.8461
2023-05-20T02:24:33.337Z,727.0769
2023-05-20T02:25:34.547Z,725.0000
2023-05-20T02:26:35.338Z,725.4615
2023-05-20T02:27:36.381Z,728.3077
2023-05-20T02:28:37.417Z,726.2308
2023-05-20T02:29:38.453Z,726.3846
2023-05-20T02:30:39.540Z,707.0769
2023-05-20T02:31:40.517Z,699.8461
2023-05-20T02:32:41.645Z,697.0000
2023-05-20T02:33:42.647Z,693.3077
2023-05-20T02:34:43.683Z,702.0000
2023-05-20T02:35:44.711Z,710.6154
2023-05-20T02:36:45.770Z,722.4615
2023-05-20T02:37:46.745Z,722.8461
2023-05-20T02:38:47.808Z,717.7692
2023-05-20T02:39:48.823Z,710.2308
2023-05-20T02:40:49.923Z,710.0769
2023-05-20T02:41:50.939Z,715.9231
2023-05-20T02:42:51.964Z,719.0000
2023-05-20T02:43:52.978Z,723.8461
2023-05-20T02:44:54.022Z,719.5385
2023-05-20T02:45:55.077Z,706.7692
2023-05-20T02:46:56.145Z,705.1539
2023-05-20T02:47:57.172Z,703.0000
2023-05-20T02:48:58.203Z,698.7692
2023-05-20T02:49:59.231Z,694.5385
2023-05-20T02:51:00.335Z,699.7692
2023-05-20T02:52:01.364Z,701.7692
2023-05-20T02:53:02.389Z,698.0769
2023-05-20T02:54:03.380Z,696.6923
2023-05-20T02:55:04.474Z,697.5385
2023-05-20T02:56:05.535Z,693.7692
2023-05-20T02:57:06.603Z,698.1539
2023-05-20T02:58:07.539Z,708.7692
2023-05-20T02:59:08.640Z,700.8461
2023-05-20T03:00:09.656Z,702.4615
2023-05-20T03:01:10.729Z,703.3077
2023-05-20T03:02:11.727Z,700.0000
2023-05-20T03:03:12.795Z,693.3846
2023-05-20T03:04:13.820Z,695.2308
2023-05-20T03:05:14.894Z,693.3846
2023-05-20T03:06:15.903Z,708.6154
2023-05-20T03:07:16.975Z,713.5385
2023-05-20T03:08:17.994Z,712.1539
2023-05-20T03:09:19.003Z,709.5385
2023-05-20T03:10:20.026Z,708.4615
2023-05-20T03:11:21.036Z,705.4615
2023-05-20T03:12:22.146Z,700.1539
2023-05-20T03:13:23.155Z,698.0769
2023-05-20T03:14:24.175Z,697.1539
2023-05-20T03:15:25.216Z,695.4615
2023-05-20T03:16:26.300Z,702.6923
2023-05-20T03:17:27.296Z,699.3077
2023-05-20T03:18:28.380Z,694.0000
2023-05-20T03:19:29.410Z,672.1539
2023-05-20T03:20:30.414Z,682.0769
2023-05-20T03:21:31.442Z,686.6923
2023-05-20T03:22:32.515Z,699.6923
2023-05-20T03:23:33.527Z,705.9231
2023-05-20T03:24:34.615Z,707.6923
2023-05-20T03:25:35.744Z,708.2308
2023-05-20T03:26:36.634Z,711.6923
2023-05-20T03:27:37.715Z,714.8461
2023-05-20T03:28:38.735Z,713.9231
2023-05-20T03:29:39.714Z,705.6154
2023-05-20T03:30:40.784Z,706.3846
2023-05-20T03:31:41.891Z,710.7692
2023-05-20T03:32:42.898Z,709.8461
2023-05-20T03:33:43.897Z,714.7692
2023-05-20T03:34:44.942Z,712.6923
2023-05-20T03:35:45.942Z,710.0769
2023-05-20T03:36:47.029Z,709.6154
2023-05-20T03:37:48.033Z,714.9231
2023-05-20T03:38:49.122Z,713.3846
2023-05-20T03:39:50.112Z,716.6154
2023-05-20T03:40:51.180Z,713.1539
2023-05-20T03:41:52.199Z,710.0000
2023-05-20T03:42:53.296Z,714.7692
2023-05-20T03:43:54.312Z,712.0000
2023-05-20T03:44:55.337Z,702.1539
2023-05-20T03:45:56.323Z,705.3846
2023-05-20T03:46:57.484Z,701.5385
2023-05-20T03:47:58.484Z,707.3077
2023-05-20T03:48:59.493Z,708.6154
2023-05-20T03:50:00.488Z,711.3846
2023-05-20T03:51:01.540Z,716.3077
2023-05-20T03:52:02.550Z,708.6923
2023-05-20T03:53:03.650Z,713.4615
2023-05-20T03:54:04.670Z,719.2308
2023-05-20T03:55:05.714Z,719.9231
2023-05-20T03:56:06.712Z,721.1539
2023-05-20T03:57:07.783Z,719.3077
2023-05-20T03:58:08.828Z,717.0769
2023-05-20T03:59:09.861Z,712.6923
2023-05-20T04:00:10.880Z,710.7692
2023-05-20T04:01:11.939Z,711.5385
2023-05-20T04:02:12.990Z,709.4615
2023-05-20T04:03:14.103Z,709.3077
2023-05-20T04:04:15.236Z,711.1539
2023-05-20T04:05:16.062Z,708.9231
2023-05-20T04:06:17.122Z,703.6923
2023-05-20T04:07:18.172Z,707.0000
2023-05-20T04:08:19.242Z,707.7692
2023-05-20T04:09:20.271Z,711.1539
2023-05-20T04:10:21.272Z,705.1539
2023-05-20T04:11:22.331Z,705.3846
2023-05-20T04:12:23.353Z,697.7692
2023-05-20T04:13:24.394Z,665.3846
2023-05-20T04:14:25.432Z,651.1539
2023-05-20T04:15:26.497Z,621.1539
2023-05-20T04:16:27.535Z,632.3846
2023-05-20T04:17:28.563Z,659.3846
2023-05-20T04:18:29.618Z,645.2308
2023-05-20T04:19:30.714Z,661.1539
2023-05-20T04:20:31.682Z,666.0769
2023-05-20T04:21:32.726Z,677.0769
2023-05-20T04:22:33.727Z,684.7692
2023-05-20T04:23:34.831Z,696.3077
2023-05-20T04:24:35.813Z,699.3846
2023-05-20T04:25:37.094Z,706.2308
2023-05-20T04:26:37.851Z,707.1539
2023-05-20T04:27:38.912Z,711.6923
2023-05-20T04:28:39.951Z,717.3846
2023-05-20T04:29:41.035Z,717.6154
2023-05-20T04:30:42.000Z,710.5385
2023-05-20T04:31:43.090Z,714.6154
2023-05-20T04:32:44.119Z,720.0769
2023-05-20T04:33:45.172Z,728.5385
2023-05-20T04:34:46.197Z,729.7692
2023-05-20T04:35:47.260Z,724.5385
2023-05-20T04:36:48.222Z,713.8461
2023-05-20T04:37:49.300Z,712.0000
2023-05-20T04:38:50.339Z,712.4615
2023-05-20T04:39:51.416Z,709.2308
2023-05-20T04:40:52.410Z,709.6154
2023-05-20T04:41:53.453Z,722.9231
2023-05-20T04:42:54.441Z,729.6154
2023-05-20T04:43:55.557Z,731.1539
2023-05-20T04:44:56.551Z,734.7692
2023-05-20T04:45:57.625Z,733.2308
2023-05-20T04:46:58.594Z,708.4615
2023-05-20T04:47:59.696Z,702.4615
2023-05-20T04:49:00.680Z,719.6154
2023-05-20T04:50:01.784Z,733.7692
2023-05-20T04:51:02.813Z,747.9231
2023-05-20T04:52:03.792Z,730.1539
2023-05-20T04:53:04.818Z,728.9231
2023-05-20T04:54:05.883Z,703.6923
2023-05-20T04:55:06.912Z,683.7692
2023-05-20T04:56:07.972Z,660.0769
2023-05-20T04:57:08.986Z,659.1539
2023-05-20T04:58:10.031Z,678.9231
2023-05-20T04:59:11.058Z,699.9231
2023-05-20T05:00:12.144Z,690.3077
2023-05-20T05:01:13.237Z,697.0000
2023-05-20T05:02:14.187Z,706.5385
2023-05-20T05:03:15.225Z,717.9231
2023-05-20T05:04:16.297Z,721.4615
2023-05-20T05:05:17.315Z,673.3846
2023-05-20T05:06:18.374Z,678.3846
2023-05-20T05:07:19.393Z,692.1539
2023-05-20T05:08:20.447Z,690.7692
2023-05-20T05:09:21.441Z,679.0000
2023-05-20T05:10:22.512Z,686.3846
2023-05-20T05:11:23.561Z,707.1539
2023-05-20T05:12:24.625Z,702.8461
2023-05-20T05:13:25.617Z,704.6923
2023-05-20T05:14:26.675Z,700.6154
2023-05-20T05:15:27.694Z,716.0000
2023-05-20T05:16:28.815Z,734.6923
2023-05-20T05:17:29.837Z,744.3077
2023-05-20T05:18:30.801Z,749.0000
2023-05-20T05:19:31.855Z,758.9231
2023-05-20T05:20:32.878Z,755.4615
2023-05-20T05:21:33.956Z,758.3077
2023-05-20T05:22:34.996Z,759.4615
2023-05-20T05:23:36.034Z,759.3077
2023-05-20T05:24:37.014Z,754.4615
2023-05-20T05:25:38.075Z,751.9231
2023-05-20T05:26:39.132Z,745.3077
2023-05-20T05:27:40.206Z,743.9231
2023-05-20T05:28:41.183Z,749.7692
2023-05-20T05:29:42.302Z,756.9231
2023-05-20T05:30:43.322Z,756.5385
2023-05-20T05:31:44.419Z,757.0000
2023-05-20T05:32:45.551Z,729.9231
2023-05-20T05:33:46.494Z,735.5385
2023-05-20T05:34:47.523Z,723.7692
2023-05-20T05:35:48.556Z,720.3846
2023-05-20T05:36:49.576Z,744.9231
2023-05-20T05:37:50.700Z,755.4615
2023-05-20T05:38:51.694Z,747.0000
2023-05-20T05:39:52.700Z,744.9231
2023-05-20T05:40:53.715Z,761.0769
2023-05-20T05:41:54.773Z,772.3846
2023-05-20T05:42:55.867Z,771.3077
2023-05-20T05:43:56.894Z,752.3846
2023-05-20T05:44:57.873Z,756.1539
2023-05-20T05:45:58.942Z,755.8461
2023-05-20T05:46:59.963Z,761.7692
2023-05-20T05:48:01.123Z,768.0000
2023-05-20T05:49:02.072Z,747.7692
2023-05-20T05:50:03.069Z,738.9231
2023-05-20T05:51:04.098Z,742.8461
2023-05-20T05:52:05.179Z,738.7692
2023-05-20T05:53:06.194Z,740.6154
2023-05-20T05:54:07.283Z,740.2308
2023-05-20T05:55:08.257Z,728.8461
2023-05-20T05:56:09.337Z,726.0769
2023-05-20T05:57:10.342Z,728.6923
2023-05-20T05:58:11.432Z,729.3846
2023-05-20T05:59:12.434Z,734.5385
2023-05-20T06:00:13.491Z,731.0769
2023-05-20T06:01:14.528Z,717.3077
2023-05-20T06:02:15.626Z,728.2308
2023-05-20T06:03:16.731Z,732.0000
2023-05-20T06:04:17.722Z,736.9231
2023-05-20T06:05:18.654Z,735.3846
2023-05-20T06:06:19.691Z,744.4615
2023-05-20T06:07:20.717Z,747.0000
2023-05-20T06:08:21.821Z,739.9231
2023-05-20T06:09:22.817Z,744.3077
2023-05-20T06:10:23.896Z,736.3077
2023-05-20T06:11:24.913Z,729.3077
2023-05-20T06:12:26.024Z,744.0000
2023-05-20T06:13:27.012Z,715.3846
2023-05-20T06:14:28.050Z,720.2308
2023-05-20T06:15:29.069Z,715.3077
2023-05-20T06:16:30.212Z,708.3846
2023-05-20T06:17:31.162Z,683.5385
2023-05-20T06:18:32.240Z,653.3077
2023-05-20T06:19:33.397Z,649.3077
2023-05-20T06:20:34.301Z,674.9231
2023-05-20T06:21:35.319Z,681.7692
2023-05-20T06:22:36.390Z,705.8461
2023-05-20T06:23:37.565Z,711.0000
2023-05-20T06:24:38.510Z,656.2308
2023-05-20T06:25:39.493Z,644.0000
2023-05-20T06:26:40.554Z,636.2308
2023-05-20T06:27:41.582Z,634.9231
2023-05-20T06:28:42.683Z,637.9231
2023-05-20T06:29:44.011Z,625.6923
2023-05-20T06:30:44.814Z,619.8461
2023-05-20T06:31:45.906Z,652.0000
2023-05-20T06:32:46.973Z,644.6154
2023-05-20T06:33:47.954Z,640.0769
2023-05-20T06:34:49.027Z,634.3846
2023-05-20T06:35:49.992Z,611.0769
2023-05-20T06:36:51.016Z,631.0769
2023-05-20T06:37:52.157Z,662.9231
2023-05-20T06:38:53.175Z,620.0000
2023-05-20T06:39:54.220Z,611.7692
2023-05-20T06:40:55.177Z,646.9231
2023-05-20T06:41:56.305Z,666.8461
2023-05-20T06:42:57.272Z,642.8461
2023-05-20T06:43:58.450Z,642.0000
2023-05-20T06:44:59.443Z,676.1539
2023-05-20T06:46:00.424Z,688.4615
2023-05-20T06:47:01.469Z,673.5385
2023-05-20T06:48:02.577Z,673.1539
2023-05-20T06:49:03.551Z,675.3846
2023-05-20T06:50:04.551Z,710.7692
2023-05-20T06:51:05.546Z,731.9231
2023-05-20T06:52:06.576Z,740.6154
2023-05-20T06:53:07.717Z,747.6923
2023-05-20T06:54:08.729Z,749.0769
2023-05-20T06:55:09.709Z,738.3846
2023-05-20T06:56:10.713Z,705.7692
2023-05-20T06:57:11.775Z,696.2308
2023-05-20T06:58:12.802Z,714.0000
2023-05-20T06:59:13.908Z,703.1539
2023-05-20T07:00:14.954Z,689.8461
2023-05-20T07:01:17.925Z,674.3077
2023-05-20T07:02:17.053Z,682.3846
2023-05-20T07:03:18.013Z,701.5385
2023-05-20T07:04:19.022Z,724.3846
2023-05-20T07:05:20.026Z,716.2308
2023-05-20T07:06:21.217Z,712.4615
2023-05-20T07:07:22.049Z,704.5385
2023-05-20T07:08:23.112Z,679.3846
2023-05-20T07:09:24.303Z,688.7692
2023-05-20T07:10:25.206Z,687.7692
2023-05-20T07:11:26.241Z,703.1539
2023-05-20T07:12:27.271Z,690.3077
2023-05-20T07:13:28.280Z,680.9231
2023-05-20T07:14:29.384Z,682.0000
2023-05-20T07:15:30.417Z,678.9231
2023-05-20T07:16:31.539Z,667.3846
2023-05-20T07:17:32.501Z,653.6923
2023-05-20T07:18:33.546Z,661.2308
2023-05-20T07:19:34.578Z,686.5385
2023-05-20T07:20:35.615Z,698.4615
2023-05-20T07:21:36.598Z,668.4615
2023-05-20T07:22:37.698Z,650.6923
2023-05-20T07:23:38.685Z,646.3077
2023-05-20T07:24:39.792Z,656.9231
2023-05-20T07:25:40.816Z,661.7692
2023-05-20T07:26:41.845Z,672.6923
2023-05-20T07:27:42.855Z,652.5385
2023-05-20T07:28:43.896Z,628.3846
2023-05-20T07:29:44.962Z,637.0000
2023-05-20T07:30:45.985Z,643.1539
2023-05-20T07:31:47.052Z,615.0000
2023-05-20T07:32:48.118Z,634.9231
2023-05-20T07:33:49.075Z,638.0769
2023-05-20T07:34:50.400Z,658.1539
2023-05-20T07:35:51.199Z,682.2308
2023-05-20T07:36:52.229Z,695.9231
2023-05-20T07:37:53.258Z,702.1539
2023-05-20T07:39:03.167Z,704.6154
2023-05-20T07:39:55.340Z,687.7692
2023-05-20T07:40:56.423Z,689.0000
2023-05-20T07:41:57.401Z,704.3846
2023-05-20T07:42:58.447Z,711.6154
2023-05-20T07:43:59.495Z,705.2308
2023-05-20T07:45:00.600Z,703.2308
2023-05-20T07:46:01.587Z,687.6923
2023-05-20T07:47:02.609Z,698.0000
2023-05-20T07:48:03.685Z,701.3077
2023-05-20T07:49:04.693Z,710.0000
2023-05-20T07:50:05.730Z,686.6154
2023-05-20T07:51:06.771Z,710.9231
2023-05-20T07:52:07.818Z,728.0000
2023-05-20T07:53:08.812Z,690.1539
2023-05-20T07:54:09.841Z,655.7692
2023-05-20T07:55:10.952Z,674.6154
2023-05-20T07:56:11.943Z,686.6923
2023-05-20T07:57:12.988Z,700.6923
2023-05-20T07:58:14.016Z,703.3077
2023-05-20T07:59:15.013Z,667.9231
2023-05-20T08:00:16.098Z,683.3846
2023-05-20T08:01:17.124Z,670.1539
2023-05-20T08:02:18.232Z,677.3846
2023-05-20T08:03:19.326Z,678.1539
2023-05-20T08:04:20.254Z,691.5385
2023-05-20T08:05:21.276Z,705.9231
2023-05-20T08:06:22.314Z,685.8461
2023-05-20T08:07:23.296Z,660.1539
2023-05-20T08:08:24.401Z,673.9231
2023-05-20T08:09:25.380Z,685.6923
2023-05-20T08:10:26.459Z,706.3077
2023-05-20T08:11:27.538Z,710.7692
2023-05-20T08:12:28.615Z,684.5385
2023-05-20T08:13:29.544Z,690.6923
2023-05-20T08:14:30.575Z,669.2308
2023-05-20T08:15:31.761Z,675.0000
2023-05-20T08:16:32.752Z,689.8461
2023-05-20T08:17:33.713Z,679.2308
2023-05-20T08:18:34.765Z,677.2308
2023-05-20T08:19:35.861Z,660.3077
2023-05-20T08:20:36.849Z,667.5385
2023-05-20T08:21:37.865Z,695.0000
2023-05-20T08:22:38.916Z,692.0769
2023-05-20T08:23:40.644Z,694.0000
2023-05-20T08:24:41.010Z,696.9231
2023-05-20T08:25:42.025Z,669.3846
2023-05-20T08:26:43.097Z,670.6154
2023-05-20T08:27:44.084Z,672.4615
2023-05-20T08:28:45.145Z,668.6154
2023-05-20T08:29:46.152Z,677.2308
2023-05-20T08:30:47.334Z,671.6923
2023-05-20T08:31:48.239Z,650.2308
2023-05-20T08:32:49.320Z,686.6923
2023-05-20T08:33:50.262Z,690.0000
2023-05-20T08:34:51.312Z,688.5385
2023-05-20T08:35:52.372Z,701.4615
2023-05-20T08:36:53.412Z,682.5385
2023-05-20T08:37:54.421Z,676.5385
2023-05-20T08:38:55.455Z,696.3846
2023-05-20T08:39:56.558Z,685.3846
2023-05-20T08:40:57.565Z,674.8461
2023-05-20T08:41:58.598Z,666.4615
2023-05-20T08:42:59.823Z,678.1539
2023-05-20T08:44:00.665Z,667.3846
2023-05-20T08:45:01.682Z,676.5385
2023-05-20T08:46:02.771Z,678.1539
2023-05-20T08:47:03.843Z,686.3077
2023-05-20T08:48:04.809Z,711.8461
2023-05-20T08:49:05.835Z,718.0769
2023-05-20T08:50:06.845Z,708.0000
2023-05-20T08:51:07.929Z,709.0769
2023-05-20T08:52:08.983Z,717.3846
2023-05-20T08:53:09.969Z,716.0000
2023-05-20T08:54:10.994Z,685.4615
2023-05-20T08:55:12.057Z,678.0000
2023-05-20T08:56:13.074Z,652.0000
2023-05-20T08:57:14.186Z,650.0000
2023-05-20T08:58:15.133Z,665.0000
2023-05-20T08:59:16.199Z,682.0000
2023-05-20T09:00:17.285Z,665.1539
2023-05-20T09:01:18.343Z,635.2308
2023-05-20T09:02:19.339Z,667.6154
2023-05-20T09:03:20.382Z,677.6923
2023-05-20T09:04:21.414Z,697.8461
2023-05-20T09:05:22.433Z,714.0769
2023-05-20T09:06:23.505Z,715.3846
2023-05-20T09:07:24.549Z,685.6154
2023-05-20T09:08:25.528Z,676.0769
2023-05-20T09:09:26.581Z,668.3077
2023-05-20T09:10:27.606Z,668.3846
2023-05-20T09:11:28.713Z,666.8461
2023-05-20T09:12:29.703Z,710.3846
2023-05-20T09:13:30.694Z,710.3077
2023-05-20T09:14:31.823Z,662.2308
2023-05-20T09:15:33.102Z,693.6154
2023-05-20T09:16:33.931Z,705.0769
2023-05-20T09:17:34.959Z,711.9231
2023-05-20T09:18:35.896Z,688.6154
2023-05-20T09:19:37.033Z,685.0769
2023-05-20T09:20:37.962Z,691.6154
2023-05-20T09:21:39.034Z,643.8461
2023-05-20T09:22:40.061Z,674.5385
2023-05-20T09:23:41.135Z,681.9231
2023-05-20T09:24:42.127Z,719.6923
2023-05-20T09:25:43.143Z,727.1539
2023-05-20T09:26:44.185Z,712.9231
2023-05-20T09:27:45.247Z,715.9231
2023-05-20T09:28:46.258Z,723.7692
2023-05-20T09:29:47.324Z,714.0000
2023-05-20T09:30:48.400Z,691.0000
2023-05-20T09:31:49.465Z,688.7692
2023-05-20T09:32:50.515Z,688.7692
2023-05-20T09:33:51.490Z,697.2308
2023-05-20T09:34:52.601Z,701.3846
2023-05-20T09:35:53.521Z,671.9231
2023-05-20T09:36:54.571Z,646.3846
2023-05-20T09:37:55.688Z,647.0769
2023-05-20T09:38:56.778Z,675.8461
2023-05-20T09:39:57.638Z,701.6923
2023-05-20T09:40:58.706Z,714.6154
2023-05-20T09:42:00.537Z,687.6923
2023-05-20T09:43:00.837Z,682.2308
2023-05-20T09:44:01.808Z,689.4615
2023-05-20T09:45:02.842Z,714.7692
2023-05-20T09:46:03.879Z,708.6154
2023-05-20T09:47:07.000Z,709.6923
2023-05-20T09:48:06.037Z,691.8461
2023-05-20T09:49:07.015Z,682.8461
2023-05-20T09:50:07.996Z,681.6923
2023-05-20T09:51:09.086Z,689.6154
2023-05-20T09:52:10.064Z,706.3846
2023-05-20T09:53:11.217Z,728.5385
2023-05-20T09:54:12.150Z,726.6154
2023-05-20T09:55:13.210Z,717.9231
2023-05-20T09:56:14.190Z,718.0769
2023-05-20T09:57:15.233Z,720.2308
2023-05-20T09:58:16.534Z,718.9231
2023-05-20T09:59:17.434Z,717.0000
2023-05-20T10:00:18.351Z,713.2308
2023-05-20T10:01:19.416Z,737.7692
2023-05-20T10:02:20.554Z,730.5385
2023-05-20T10:03:21.740Z,693.6154
2023-05-20T10:04:22.493Z,692.8461
2023-05-20T10:05:23.569Z,685.1539
2023-05-20T10:06:24.706Z,684.6154
2023-05-20T10:07:40.626Z,690.2308
2023-05-20T10:08:26.685Z,707.1539
2023-05-20T10:09:27.860Z,689.3077
2023-05-20T10:10:28.721Z,693.4615
2023-05-20T10:11:29.731Z,691.2308
2023-05-20T10:12:30.748Z,702.7692
2023-05-20T10:13:31.813Z,699.3077
2023-05-20T10:14:32.866Z,677.5385
2023-05-20T10:15:34.225Z,706.6154
2023-05-20T10:16:34.905Z,717.9231
2023-05-20T10:17:35.956Z,726.6923
2023-05-20T10:18:37.018Z,723.1539
2023-05-20T10:19:38.055Z,723.0769
2023-05-20T10:20:39.038Z,695.4615
2023-05-20T10:21:40.038Z,645.5385
2023-05-20T10:22:41.368Z,636.0000
2023-05-20T10:23:42.284Z,633.1539
2023-05-20T10:24:43.205Z,640.0769
2023-05-20T10:25:44.197Z,655.0769
2023-05-20T10:26:45.240Z,690.3846
2023-05-20T10:27:46.300Z,687.0769
2023-05-20T10:28:47.366Z,670.5385
2023-05-20T10:30:49.413Z,681.5385
2023-05-20T10:31:50.442Z,664.6154
2023-05-20T10:32:51.532Z,680.4615
2023-05-20T10:33:52.488Z,671.3077
2023-05-20T10:34:53.577Z,668.3846
2023-05-20T10:35:54.536Z,668.0769
2023-05-20T10:36:55.612Z,709.0769
2023-05-20T10:37:56.642Z,717.3846
2023-05-20T10:38:57.715Z,685.0000
2023-05-20T10:39:58.721Z,680.4615
2023-05-20T10:40:59.798Z,723.5385
2023-05-20T10:42:00.745Z,738.0769
2023-05-20T10:43:01.792Z,740.4615
2023-05-20T10:44:02.884Z,755.1539
2023-05-20T10:45:03.922Z,736.4615
2023-05-20T10:46:07.552Z,715.3846
2023-05-20T10:47:24.461Z,728.0000
2023-05-20T10:48:07.036Z,714.9231
2023-05-20T10:49:08.194Z,716.9231
2023-05-20T10:50:09.114Z,711.6923
2023-05-20T10:51:10.115Z,720.3077
2023-05-20T10:52:11.140Z,720.0769
2023-05-20T10:53:21.653Z,686.5385
2023-05-20T10:54:13.234Z,672.2308
2023-05-20T10:55:14.281Z,667.1539
2023-05-20T10:56:15.344Z,655.6154
2023-05-20T10:57:16.296Z,622.1539
2023-05-20T10:58:17.375Z,627.2308
2023-05-20T10:59:18.418Z,663.4615
2023-05-20T11:00:19.688Z,661.2308
2023-05-20T11:01:20.575Z,675.5385
2023-05-20T11:02:21.545Z,677.5385
2023-05-20T11:03:22.773Z,660.4615
2023-05-20T11:04:23.591Z,661.6154
2023-05-20T11:05:24.636Z,655.4615
2023-05-20T11:06:25.707Z,672.6923
2023-05-20T11:07:26.691Z,677.7692
2023-05-20T11:08:29.439Z,652.8461
2023-05-20T11:09:28.739Z,652.6923
2023-05-20T11:10:29.859Z,673.6154
2023-05-20T11:11:30.854Z,700.8461
2023-05-20T11:12:31.960Z,682.4615
2023-05-20T11:13:32.966Z,655.4615
2023-05-20T11:14:34.082Z,687.5385
2023-05-20T11:15:34.993Z,681.2308
2023-05-20T11:16:36.089Z,672.7692
2023-05-20T11:17:37.171Z,674.4615
2023-05-20T11:18:38.109Z,672.3846
2023-05-20T11:19:39.152Z,662.3846
2023-05-20T11:20:40.173Z,679.3846
2023-05-20T11:21:41.260Z,698.8461
2023-05-20T11:22:42.288Z,679.9231
2023-05-20T11:23:43.377Z,665.8461
2023-05-20T11:24:44.346Z,641.3077
2023-05-20T11:25:45.422Z,647.9231
2023-05-20T11:26:46.407Z,687.6154
2023-05-20T11:27:47.487Z,670.3077
2023-05-20T11:28:48.494Z,690.9231
2023-05-20T11:29:49.513Z,675.8461
2023-05-20T11:30:50.532Z,687.6923
2023-05-20T11:31:51.631Z,698.6923
2023-05-20T11:32:52.773Z,654.3077
2023-05-20T11:33:53.700Z,640.1539
2023-05-20T11:34:54.681Z,668.1539
2023-05-20T11:35:55.722Z,690.6923
2023-05-20T11:36:56.729Z,658.0769
2023-05-20T11:37:57.817Z,675.4615
2023-05-20T11:38:58.878Z,674.4615
2023-05-20T11:39:59.867Z,679.0000
2023-05-20T11:41:00.903Z,689.8461
2023-05-20T11:42:01.949Z,671.6154
2023-05-20T11:43:03.010Z,690.6154
2023-05-20T11:44:04.053Z,703.6923
2023-05-20T11:45:05.044Z,662.0000
2023-05-20T11:46:06.115Z,661.2308
2023-05-20T11:47:07.098Z,687.0769
2023-05-20T11:48:08.229Z,653.6923
2023-05-20T11:49:09.229Z,675.9231
2023-05-20T11:50:10.246Z,685.9231
2023-05-20T11:51:11.254Z,704.9231
2023-05-20T11:52:12.294Z,692.9231
2023-05-20T11:53:13.312Z,685.1539
2023-05-20T11:54:14.421Z,678.0769
2023-05-20T11:55:15.442Z,685.8461
2023-05-20T11:56:16.433Z,701.4615
2023-05-20T11:57:17.455Z,698.3077